createdAt,value
2019-01-12T00:00:32.727Z,101774.72
2019-01-12T00:01:39.831Z,101773.88
2019-01-12T00:02:46.815Z,101775.58
2019-01-12T00:03:54.543Z,101770.04
2019-01-12T00:05:02.049Z,101766.20
2019-01-12T00:06:09.132Z,101768.75
2019-01-12T00:07:15.836Z,101766.19
2019-01-12T00:08:22.564Z,101775.53
2019-01-12T00:09:29.605Z,101764.14
2019-01-12T00:10:36.321Z,101766.62
2019-01-12T00:11:43.046Z,101771.28
2019-01-12T00:12:49.799Z,101767.47
2019-01-12T00:13:56.642Z,101771.30
2019-01-12T00:15:03.299Z,101768.33
2019-01-12T00:16:09.956Z,101774.30
2019-01-12T00:17:17.079Z,101767.08
2019-01-12T00:18:23.816Z,101775.98
2019-01-12T00:19:30.558Z,101766.59
2019-01-12T00:20:37.545Z,101763.20
2019-01-12T00:21:44.250Z,101765.81
2019-01-12T00:22:50.958Z,101765.36
2019-01-12T00:23:57.705Z,101762.81
2019-01-12T00:25:04.922Z,101762.78
2019-01-12T00:26:11.949Z,101766.19
2019-01-12T00:27:18.940Z,101763.66
2019-01-12T00:28:25.922Z,101760.64
2019-01-12T00:29:32.976Z,101764.05
2019-01-12T00:30:39.647Z,101757.70
2019-01-12T00:31:46.288Z,101761.12
2019-01-12T00:32:53.000Z,101758.16
2019-01-12T00:34:00.582Z,101761.97
2019-01-12T00:35:08.047Z,101757.33
2019-01-12T00:36:14.720Z,101761.09
2019-01-12T00:37:21.453Z,101757.69
2019-01-12T00:38:28.191Z,101759.42
2019-01-12T00:39:35.225Z,101756.45
2019-01-12T00:40:41.998Z,101751.78
2019-01-12T00:41:49.505Z,101752.20
2019-01-12T00:42:56.221Z,101750.91
2019-01-12T00:44:03.607Z,101754.31
2019-01-12T00:45:12.203Z,101749.23
2019-01-12T00:46:19.147Z,101748.37
2019-01-12T00:47:25.811Z,101750.07
2019-01-12T00:48:32.468Z,101752.17
2019-01-12T00:49:39.510Z,101753.91
2019-01-12T00:50:46.510Z,101747.52
2019-01-12T00:51:53.337Z,101750.48
2019-01-12T00:53:00.325Z,101751.30
2019-01-12T00:54:07.016Z,101748.35
2019-01-12T00:55:14.156Z,101750.05
2019-01-12T00:56:21.254Z,101748.78
2019-01-12T00:57:27.961Z,101741.95
2019-01-12T00:58:34.964Z,101749.16
2019-01-12T00:59:41.910Z,101748.70
2019-01-12T01:00:48.987Z,101747.89
2019-01-12T01:01:55.666Z,101747.47
2019-01-12T01:03:03.192Z,101751.28
2019-01-12T01:04:11.587Z,101747.42
2019-01-12T01:05:18.409Z,101747.89
2019-01-12T01:06:25.115Z,101747.06
2019-01-12T01:07:32.264Z,101741.97
2019-01-12T01:08:38.963Z,101741.98
2019-01-12T01:09:46.050Z,101745.33
2019-01-12T01:10:52.714Z,101743.64
2019-01-12T01:11:59.408Z,101740.23
2019-01-12T01:13:06.337Z,101745.75
2019-01-12T01:14:13.052Z,101741.11
2019-01-12T01:15:20.803Z,101741.48
2019-01-12T01:16:27.517Z,101740.19
2019-01-12T01:17:34.175Z,101734.25
2019-01-12T01:18:40.841Z,101739.77
2019-01-12T01:19:47.688Z,101738.10
2019-01-12T01:20:54.437Z,101739.38
2019-01-12T01:22:01.120Z,101738.91
2019-01-12T01:23:07.800Z,101735.95
2019-01-12T01:24:14.529Z,101737.23
2019-01-12T01:25:21.690Z,101742.75
2019-01-12T01:26:28.352Z,101738.52
2019-01-12T01:27:35.033Z,101741.52
2019-01-12T01:28:41.709Z,101736.84
2019-01-12T01:29:48.474Z,101740.66
2019-01-12T01:30:55.142Z,101738.10
2019-01-12T01:32:02.201Z,101738.08
2019-01-12T01:33:09.536Z,101739.79
2019-01-12T01:34:16.519Z,101741.06
2019-01-12T01:35:23.440Z,101740.63
2019-01-12T01:36:30.076Z,101739.36
2019-01-12T01:37:37.035Z,101728.77
2019-01-12T01:38:44.217Z,101729.63
2019-01-12T01:39:50.974Z,101732.64
2019-01-12T01:40:57.610Z,101726.23
2019-01-12T01:42:04.582Z,101724.53
2019-01-12T01:43:11.272Z,101720.69
2019-01-12T01:44:18.271Z,101722.81
2019-01-12T01:45:24.981Z,101720.28
2019-01-12T01:46:31.718Z,101718.17
2019-01-12T01:47:38.480Z,101722.88
2019-01-12T01:48:45.146Z,101729.65
2019-01-12T01:49:51.860Z,101729.22
2019-01-12T01:50:58.941Z,101729.61
2019-01-12T01:52:06.081Z,101731.75
2019-01-12T01:53:13.262Z,101724.58
2019-01-12T01:54:19.968Z,101724.55
2019-01-12T01:55:27.029Z,101730.94
2019-01-12T01:56:33.714Z,101729.20
2019-01-12T01:57:40.776Z,101724.92
2019-01-12T01:58:47.840Z,101721.16
2019-01-12T01:59:55.426Z,101721.13
2019-01-12T02:01:02.395Z,101717.70
2019-01-12T02:02:09.070Z,101720.27
2019-01-12T02:03:15.771Z,101721.09
2019-01-12T02:04:22.448Z,101718.13
2019-01-12T02:05:29.481Z,101712.20
2019-01-12T02:06:36.202Z,101710.48
2019-01-12T02:07:42.854Z,101710.03
2019-01-12T02:08:50.072Z,101708.34
2019-01-12T02:09:57.387Z,101710.02
2019-01-12T02:11:04.503Z,101704.95
2019-01-12T02:12:11.147Z,101707.50
2019-01-12T02:13:18.135Z,101706.22
2019-01-12T02:14:24.872Z,101708.76
2019-01-12T02:15:31.952Z,101707.48
2019-01-12T02:16:38.674Z,101702.00
2019-01-12T02:17:45.708Z,101702.02
2019-01-12T02:18:52.819Z,101706.28
2019-01-12T02:19:59.553Z,101710.51
2019-01-12T02:21:06.291Z,101702.86
2019-01-12T02:22:12.963Z,101703.70
2019-01-12T02:23:19.626Z,101704.15
2019-01-12T02:24:26.670Z,101697.81
2019-01-12T02:25:33.632Z,101698.66
2019-01-12T02:26:40.892Z,101691.88
2019-01-12T02:27:47.647Z,101697.35
2019-01-12T02:28:54.358Z,101694.79
2019-01-12T02:30:01.771Z,101685.04
2019-01-12T02:31:08.453Z,101686.34
2019-01-12T02:32:15.181Z,101685.91
2019-01-12T02:33:22.479Z,101682.92
2019-01-12T02:34:29.523Z,101677.86
2019-01-12T02:35:36.233Z,101686.33
2019-01-12T02:36:43.404Z,101688.01
2019-01-12T02:37:50.093Z,101684.59
2019-01-12T02:38:57.124Z,101686.72
2019-01-12T02:40:05.247Z,101685.45
2019-01-12T02:41:11.916Z,101688.02
2019-01-12T02:42:18.620Z,101689.67
2019-01-12T02:43:25.270Z,101684.56
2019-01-12T02:44:32.301Z,101689.69
2019-01-12T02:45:39.586Z,101686.28
2019-01-12T02:46:46.250Z,101682.02
2019-01-12T02:47:52.941Z,101683.26
2019-01-12T02:48:59.593Z,101677.38
2019-01-12T02:50:07.966Z,101677.37
2019-01-12T02:51:15.075Z,101673.55
2019-01-12T02:52:21.791Z,101674.39
2019-01-12T02:53:28.827Z,101668.86
2019-01-12T02:54:35.864Z,101669.28
2019-01-12T02:55:42.879Z,101670.18
2019-01-12T02:56:49.602Z,101670.58
2019-01-12T02:57:56.634Z,101674.02
2019-01-12T02:59:03.319Z,101665.91
2019-01-12T03:00:17.562Z,101670.10
2019-01-12T03:01:24.641Z,101672.20
2019-01-12T03:02:31.694Z,101670.99
2019-01-12T03:03:38.390Z,101668.02
2019-01-12T03:04:45.046Z,101670.58
2019-01-12T03:05:51.800Z,101671.85
2019-01-12T03:06:58.984Z,101667.22
2019-01-12T03:08:05.764Z,101665.91
2019-01-12T03:09:12.476Z,101659.52
2019-01-12T03:10:20.384Z,101659.54
2019-01-12T03:11:27.070Z,101659.95
2019-01-12T03:12:34.059Z,101649.34
2019-01-12T03:13:40.792Z,101652.80
2019-01-12T03:14:47.861Z,101651.50
2019-01-12T03:15:54.537Z,101654.46
2019-01-12T03:17:01.256Z,101650.64
2019-01-12T03:18:08.342Z,101647.64
2019-01-12T03:19:15.337Z,101651.05
2019-01-12T03:20:22.296Z,101648.08
2019-01-12T03:21:28.976Z,101649.75
2019-01-12T03:22:35.648Z,101645.52
2019-01-12T03:23:42.383Z,101643.80
2019-01-12T03:24:49.586Z,101642.52
2019-01-12T03:25:56.879Z,101640.86
2019-01-12T03:27:03.529Z,101638.69
2019-01-12T03:28:10.639Z,101635.73
2019-01-12T03:29:17.443Z,101638.69
2019-01-12T03:30:24.164Z,101637.43
2019-01-12T03:31:30.847Z,101641.64
2019-01-12T03:32:37.505Z,101644.18
2019-01-12T03:33:44.195Z,101645.47
2019-01-12T03:34:50.953Z,101642.45
2019-01-12T03:35:57.650Z,101636.50
2019-01-12T03:37:04.605Z,101638.64
2019-01-12T03:38:11.269Z,101634.83
2019-01-12T03:39:17.951Z,101636.95
2019-01-12T03:40:24.622Z,101637.83
2019-01-12T03:41:31.506Z,101634.41
2019-01-12T03:42:38.589Z,101633.16
2019-01-12T03:43:45.568Z,101632.74
2019-01-12T03:44:52.584Z,101634.41
2019-01-12T03:45:59.248Z,101633.95
2019-01-12T03:47:06.177Z,101633.97
2019-01-12T03:48:12.969Z,101627.66
2019-01-12T03:49:19.703Z,101627.22
2019-01-12T03:50:26.390Z,101633.19
2019-01-12T03:51:33.241Z,101637.41
2019-01-12T03:52:39.918Z,101636.95
2019-01-12T03:53:46.973Z,101628.92
2019-01-12T03:54:54.026Z,101630.98
2019-01-12T03:56:01.000Z,101630.53
2019-01-12T03:57:08.430Z,101622.48
2019-01-12T03:58:15.095Z,101628.82
2019-01-12T03:59:21.758Z,101625.86
2019-01-12T04:00:28.831Z,101625.45
2019-01-12T04:01:35.558Z,101616.08
2019-01-12T04:02:42.212Z,101620.77
2019-01-12T04:03:48.868Z,101616.13
2019-01-12T04:04:55.531Z,101619.14
2019-01-12T04:06:02.453Z,101611.92
2019-01-12T04:07:09.154Z,101619.16
2019-01-12T04:08:16.103Z,101613.66
2019-01-12T04:09:22.808Z,101614.91
2019-01-12T04:10:30.273Z,101617.45
2019-01-12T04:11:36.960Z,101610.23
2019-01-12T04:13:55.861Z,101613.22
2019-01-12T04:15:02.917Z,101609.84
2019-01-12T04:16:09.605Z,101610.68
2019-01-12T04:17:16.379Z,101611.12
2019-01-12T04:18:23.024Z,101610.68
2019-01-12T04:19:29.909Z,101604.33
2019-01-12T04:20:36.595Z,101610.70
2019-01-12T04:21:43.274Z,101610.28
2019-01-12T04:22:50.146Z,101610.28
2019-01-12T04:23:56.834Z,101608.99
2019-01-12T04:25:03.801Z,101610.23
2019-01-12T04:26:10.518Z,101608.95
2019-01-12T04:27:17.221Z,101607.23
2019-01-12T04:28:23.867Z,101610.18
2019-01-12T04:29:30.574Z,101604.22
2019-01-12T04:30:37.758Z,101602.99
2019-01-12T04:31:44.861Z,101604.66
2019-01-12T04:32:51.820Z,101601.72
2019-01-12T04:33:58.485Z,101600.41
2019-01-12T04:35:06.278Z,101599.61
2019-01-12T04:36:12.979Z,101600.91
2019-01-12T04:37:20.059Z,101603.02
2019-01-12T04:38:26.815Z,101600.03
2019-01-12T04:39:33.440Z,101600.48
2019-01-12T04:40:40.121Z,101595.36
2019-01-12T04:41:46.837Z,101592.40
2019-01-12T04:42:53.773Z,101591.55
2019-01-12T04:44:00.523Z,101593.23
2019-01-12T04:45:09.015Z,101594.92
2019-01-12T04:46:15.712Z,101591.89
2019-01-12T04:47:22.425Z,101588.55
2019-01-12T04:48:29.508Z,101588.92
2019-01-12T04:49:36.211Z,101585.97
2019-01-12T04:50:42.916Z,101580.02
2019-01-12T04:51:49.665Z,101582.13
2019-01-12T04:52:56.351Z,101572.34
2019-01-12T04:54:03.047Z,101579.55
2019-01-12T04:55:10.534Z,101582.92
2019-01-12T04:56:17.481Z,101582.06
2019-01-12T04:57:24.527Z,101579.55
2019-01-12T04:58:31.196Z,101586.77
2019-01-12T04:59:38.239Z,101583.00
2019-01-12T05:00:45.660Z,101586.81
2019-01-12T05:01:52.530Z,101580.89
2019-01-12T05:02:59.226Z,101574.94
2019-01-12T05:04:06.333Z,101576.60
2019-01-12T05:05:13.119Z,101573.20
2019-01-12T05:06:20.161Z,101570.26
2019-01-12T05:07:26.886Z,101570.66
2019-01-12T05:08:33.936Z,101562.16
2019-01-12T05:09:41.035Z,101563.90
2019-01-12T05:10:47.746Z,101559.21
2019-01-12T05:11:55.194Z,101558.80
2019-01-12T05:13:01.870Z,101565.55
2019-01-12T05:14:08.513Z,101563.02
2019-01-12T05:15:16.667Z,101561.73
2019-01-12T05:16:23.812Z,101557.90
2019-01-12T05:17:30.857Z,101555.75
2019-01-12T05:18:38.232Z,101551.53
2019-01-12T05:19:45.647Z,101554.11
2019-01-12T05:20:52.579Z,101550.70
2019-01-12T05:21:59.262Z,101546.45
2019-01-12T05:23:06.913Z,101549.02
2019-01-12T05:24:13.714Z,101553.68
2019-01-12T05:25:20.695Z,101548.15
2019-01-12T05:26:28.289Z,101545.64
2019-01-12T05:27:34.952Z,101541.36
2019-01-12T05:28:41.662Z,101543.02
2019-01-12T05:29:49.061Z,101540.02
2019-01-12T05:30:55.806Z,101540.42
2019-01-12T05:32:02.473Z,101547.22
2019-01-12T05:33:09.205Z,101536.62
2019-01-12T05:34:15.927Z,101536.67
2019-01-12T05:35:22.871Z,101543.02
2019-01-12T05:36:29.567Z,101536.27
2019-01-12T05:37:36.514Z,101536.67
2019-01-12T05:38:43.218Z,101530.75
2019-01-12T05:39:50.671Z,101534.98
2019-01-12T05:40:57.336Z,101531.60
2019-01-12T05:42:03.997Z,101530.77
2019-01-12T05:43:10.764Z,101532.44
2019-01-12T05:44:17.971Z,101532.02
2019-01-12T05:45:24.706Z,101524.82
2019-01-12T05:46:31.736Z,101534.96
2019-01-12T05:47:38.391Z,101531.15
2019-01-12T05:48:45.049Z,101525.61
2019-01-12T05:49:52.130Z,101528.17
2019-01-12T05:50:58.906Z,101522.29
2019-01-12T05:52:05.722Z,101524.78
2019-01-12T05:53:12.809Z,101517.98
2019-01-12T05:54:19.973Z,101520.95
2019-01-12T05:55:26.889Z,101522.22
2019-01-12T05:56:33.572Z,101516.27
2019-01-12T05:57:40.233Z,101513.75
2019-01-12T05:58:47.298Z,101510.36
2019-01-12T05:59:54.012Z,101507.40
2019-01-12T06:01:00.783Z,101504.43
2019-01-12T06:02:07.480Z,101500.59
2019-01-12T06:03:14.597Z,101504.00
2019-01-12T06:04:21.781Z,101506.11
2019-01-12T06:05:28.893Z,101497.21
2019-01-12T06:06:36.355Z,101500.17
2019-01-12T06:07:43.439Z,101500.17
2019-01-12T06:08:50.536Z,101492.98
2019-01-12T06:09:57.577Z,101489.97
2019-01-12T06:11:04.319Z,101481.09
2019-01-12T06:12:11.433Z,101482.79
2019-01-12T06:13:18.480Z,101478.95
2019-01-12T06:14:25.549Z,101478.91
2019-01-12T06:15:32.554Z,101486.98
2019-01-12T06:16:39.209Z,101482.31
2019-01-12T06:17:46.230Z,101473.44
2019-01-12T06:18:53.485Z,101481.45
2019-01-12T06:20:00.495Z,101476.83
2019-01-12T06:21:07.458Z,101465.38
2019-01-12T06:22:14.508Z,101469.60
2019-01-12T06:23:21.206Z,101475.13
2019-01-12T06:24:28.125Z,101473.83
2019-01-12T06:25:35.180Z,101466.62
2019-01-12T06:26:41.821Z,101463.23
2019-01-12T06:27:48.490Z,101462.38
2019-01-12T06:28:55.283Z,101461.53
2019-01-12T06:30:01.952Z,101462.81
2019-01-12T06:31:09.296Z,101463.23
2019-01-12T06:32:16.283Z,101457.73
2019-01-12T06:33:23.027Z,101455.16
2019-01-12T06:34:29.710Z,101454.32
2019-01-12T06:35:36.440Z,101448.41
2019-01-12T06:36:43.118Z,101446.27
2019-01-12T06:37:50.451Z,101440.34
2019-01-12T06:38:57.137Z,101450.51
2019-01-12T06:40:03.845Z,101443.30
2019-01-12T06:41:10.713Z,101437.78
2019-01-12T06:42:17.353Z,101432.70
2019-01-12T06:43:24.049Z,101440.32
2019-01-12T06:44:30.727Z,101437.78
2019-01-12T06:45:37.729Z,101430.14
2019-01-12T06:46:44.492Z,101436.09
2019-01-12T06:47:51.605Z,101437.36
2019-01-12T06:48:58.247Z,101438.62
2019-01-12T06:50:06.283Z,101425.06
2019-01-12T06:51:12.971Z,101420.01
2019-01-12T06:52:19.845Z,101428.47
2019-01-12T06:53:26.573Z,101430.59
2019-01-12T06:54:33.543Z,101426.80
2019-01-12T06:55:40.248Z,101423.37
2019-01-12T06:56:46.940Z,101425.50
2019-01-12T06:57:53.980Z,101420.01
2019-01-12T06:59:01.020Z,101416.17
2019-01-12T07:00:11.836Z,101419.16
2019-01-12T07:01:19.044Z,101422.11
2019-01-12T07:02:25.783Z,101420.83
2019-01-12T07:03:32.514Z,101420.39
2019-01-12T07:04:39.518Z,101418.72
2019-01-12T07:05:46.463Z,101414.48
2019-01-12T07:06:53.402Z,101417.86
2019-01-12T07:08:00.418Z,101408.95
2019-01-12T07:09:09.620Z,101405.99
2019-01-12T07:10:17.182Z,101399.20
2019-01-12T07:11:23.925Z,101400.91
2019-01-12T07:12:30.700Z,101400.05
2019-01-12T07:13:37.423Z,101399.63
2019-01-12T07:14:44.099Z,101396.24
2019-01-12T07:15:51.812Z,101393.28
2019-01-12T07:16:59.194Z,101389.48
2019-01-12T07:18:08.978Z,101389.04
2019-01-12T07:19:14.776Z,101385.23
2019-01-12T07:20:21.871Z,101389.47
2019-01-12T07:21:28.941Z,101389.87
2019-01-12T07:22:35.995Z,101383.95
2019-01-12T07:23:42.762Z,101391.58
2019-01-12T07:24:49.809Z,101388.59
2019-01-12T07:25:57.000Z,101380.13
2019-01-12T07:27:03.667Z,101383.98
2019-01-12T07:28:11.537Z,101372.94
2019-01-12T07:29:18.552Z,101379.70
2019-01-12T07:30:25.827Z,101375.05
2019-01-12T07:31:32.494Z,101370.40
2019-01-12T07:32:39.173Z,101373.78
2019-01-12T07:33:45.848Z,101372.95
2019-01-12T07:34:52.554Z,101367.42
2019-01-12T07:36:01.168Z,101369.54
2019-01-12T07:37:08.152Z,101372.52
2019-01-12T07:38:14.834Z,101369.12
2019-01-12T07:39:21.583Z,101371.66
2019-01-12T07:40:28.306Z,101367.84
2019-01-12T07:41:35.263Z,101368.72
2019-01-12T07:42:41.960Z,101370.83
2019-01-12T07:43:49.012Z,101377.19
2019-01-12T07:44:56.456Z,101368.72
2019-01-12T07:46:03.574Z,101364.05
2019-01-12T07:47:10.549Z,101371.27
2019-01-12T07:48:17.951Z,101362.78
2019-01-12T07:49:25.066Z,101364.50
2019-01-12T07:50:31.742Z,101361.52
2019-01-12T07:51:38.456Z,101364.50
2019-01-12T07:52:45.432Z,101364.91
2019-01-12T07:53:52.500Z,101357.28
2019-01-12T07:54:59.554Z,101354.73
2019-01-12T07:56:06.622Z,101359.41
2019-01-12T07:57:13.293Z,101362.82
2019-01-12T07:58:20.453Z,101356.47
2019-01-12T07:59:27.219Z,101353.92
2019-01-12T08:00:33.906Z,101356.47
2019-01-12T08:01:40.643Z,101354.77
2019-01-12T08:02:47.701Z,101362.81
2019-01-12T08:03:54.821Z,101358.16
2019-01-12T08:05:01.485Z,101355.17
2019-01-12T08:06:08.202Z,101357.73
2019-01-12T08:07:14.928Z,101357.30
2019-01-12T08:08:22.557Z,101355.63
2019-01-12T08:09:29.249Z,101363.69
2019-01-12T08:10:36.369Z,101360.72
2019-01-12T08:11:43.098Z,101363.67
2019-01-12T08:12:50.155Z,101363.27
2019-01-12T08:13:56.893Z,101378.52
2019-01-12T08:15:03.668Z,101382.33
2019-01-12T08:16:10.670Z,101383.20
2019-01-12T08:17:17.351Z,101377.24
2019-01-12T08:18:24.999Z,101374.30
2019-01-12T08:19:31.670Z,101374.31
2019-01-12T08:20:38.361Z,101362.84
2019-01-12T08:21:45.114Z,101346.33
2019-01-12T08:22:51.811Z,101340.39
2019-01-12T08:23:58.459Z,101337.84
2019-01-12T08:25:05.796Z,101336.59
2019-01-12T08:26:13.040Z,101338.28
2019-01-12T08:27:20.780Z,101321.75
2019-01-12T08:28:27.800Z,101322.59
2019-01-12T08:29:34.456Z,101323.86
2019-01-12T08:30:41.148Z,101317.94
2019-01-12T08:31:47.858Z,101315.38
2019-01-12T08:32:54.576Z,101312.41
2019-01-12T08:34:01.593Z,101317.93
2019-01-12T08:35:09.553Z,101308.61
2019-01-12T08:36:16.288Z,101309.05
2019-01-12T08:37:22.953Z,101311.58
2019-01-12T08:38:29.592Z,101315.39
2019-01-12T08:39:36.574Z,101304.77
2019-01-12T08:40:43.828Z,101310.28
2019-01-12T08:41:50.770Z,101311.98
2019-01-12T08:42:58.017Z,101306.47
2019-01-12T08:44:05.784Z,101308.59
2019-01-12T08:45:13.265Z,101308.59
2019-01-12T08:46:20.501Z,101303.94
2019-01-12T08:47:27.167Z,101300.98
2019-01-12T08:48:33.931Z,101295.90
2019-01-12T08:49:40.672Z,101295.88
2019-01-12T08:50:47.896Z,101298.00
2019-01-12T08:51:55.100Z,101296.31
2019-01-12T08:53:01.802Z,101292.51
2019-01-12T08:54:09.071Z,101283.19
2019-01-12T08:55:17.396Z,101281.52
2019-01-12T08:56:24.189Z,101275.55
2019-01-12T08:57:30.909Z,101276.84
2019-01-12T08:58:37.741Z,101274.71
2019-01-12T08:59:44.750Z,101261.99
2019-01-12T09:00:52.021Z,101258.62
2019-01-12T09:01:59.306Z,101261.58
2019-01-12T09:03:06.426Z,101259.47
2019-01-12T09:04:13.817Z,101258.63
2019-01-12T09:05:20.594Z,101262.01
2019-01-12T09:06:27.882Z,101259.88
2019-01-12T09:07:34.795Z,101260.76
2019-01-12T09:08:42.081Z,101258.61
2019-01-12T09:09:48.742Z,101255.65
2019-01-12T09:10:55.395Z,101263.72
2019-01-12T09:12:02.087Z,101256.92
2019-01-12T09:13:09.188Z,101256.50
2019-01-12T09:14:15.996Z,101251.41
2019-01-12T09:15:23.850Z,101253.55
2019-01-12T09:16:30.894Z,101256.93
2019-01-12T09:17:37.627Z,101259.05
2019-01-12T09:18:44.773Z,101244.23
2019-01-12T09:19:51.714Z,101239.56
2019-01-12T09:20:59.053Z,101231.93
2019-01-12T09:22:05.960Z,101228.95
2019-01-12T09:23:12.919Z,101218.34
2019-01-12T09:24:20.136Z,101217.94
2019-01-12T09:25:27.078Z,101219.20
2019-01-12T09:26:33.843Z,101222.59
2019-01-12T09:27:41.226Z,101216.22
2019-01-12T09:28:48.386Z,101208.58
2019-01-12T09:29:55.179Z,101204.79
2019-01-12T09:31:02.219Z,101202.25
2019-01-12T09:32:11.278Z,101207.33
2019-01-12T09:33:18.420Z,101200.09
2019-01-12T09:34:25.416Z,101200.52
2019-01-12T09:35:32.170Z,101196.70
2019-01-12T09:36:39.082Z,101196.73
2019-01-12T09:37:46.283Z,101189.94
2019-01-12T09:38:53.023Z,101187.83
2019-01-12T09:40:00.417Z,101188.66
2019-01-12T09:41:07.134Z,101191.22
2019-01-12T09:42:14.700Z,101187.81
2019-01-12T09:43:21.770Z,101185.27
2019-01-12T09:44:28.962Z,101175.95
2019-01-12T09:45:35.786Z,101176.36
2019-01-12T09:46:43.102Z,101169.16
2019-01-12T09:47:49.795Z,101174.26
2019-01-12T09:48:56.583Z,101177.64
2019-01-12T09:50:03.751Z,101167.03
2019-01-12T09:51:10.451Z,101170.02
2019-01-12T09:52:18.197Z,101166.20
2019-01-12T09:53:25.514Z,101158.13
2019-01-12T09:54:32.209Z,101157.30
2019-01-12T09:55:39.876Z,101156.00
2019-01-12T09:56:51.680Z,101157.30
2019-01-12T09:57:55.065Z,101147.12
2019-01-12T09:59:02.150Z,101153.05
2019-01-12T10:00:16.668Z,101147.12
2019-01-12T10:01:23.764Z,101147.97
2019-01-12T10:02:30.860Z,101147.53
2019-01-12T10:03:38.321Z,101145.86
2019-01-12T10:04:45.010Z,101150.08
2019-01-12T10:05:51.720Z,101145.41
2019-01-12T10:06:59.054Z,101143.31
2019-01-12T10:08:05.763Z,101146.28
2019-01-12T10:09:12.798Z,101140.34
2019-01-12T10:10:20.784Z,101142.03
2019-01-12T10:11:27.438Z,101144.58
2019-01-12T10:12:34.130Z,101133.56
2019-01-12T10:13:41.334Z,101135.24
2019-01-12T10:14:47.959Z,101136.08
2019-01-12T10:15:55.081Z,101135.67
2019-01-12T10:17:01.853Z,101133.13
2019-01-12T10:18:08.608Z,101132.70
2019-01-12T10:19:17.023Z,101137.78
2019-01-12T10:20:23.814Z,101130.14
2019-01-12T10:21:30.561Z,101133.56
2019-01-12T10:22:37.535Z,101128.04
2019-01-12T10:23:44.218Z,101132.29
2019-01-12T10:24:50.959Z,101118.70
2019-01-12T10:25:57.946Z,101122.95
2019-01-12T10:27:05.254Z,101118.70
2019-01-12T10:28:14.586Z,101111.91
2019-01-12T10:29:29.210Z,101111.94
2019-01-12T10:30:36.728Z,101106.41
2019-01-12T10:31:43.468Z,101105.15
2019-01-12T10:32:50.978Z,101103.88
2019-01-12T10:33:57.891Z,101096.66
2019-01-12T10:35:04.945Z,101090.30
2019-01-12T10:36:11.620Z,101088.20
2019-01-12T10:37:18.280Z,101079.28
2019-01-12T10:38:27.179Z,101080.96
2019-01-12T10:39:34.122Z,101072.06
2019-01-12T10:40:40.986Z,101075.04
2019-01-12T10:41:47.991Z,101062.76
2019-01-12T10:42:54.802Z,101073.77
2019-01-12T10:44:01.478Z,101063.59
2019-01-12T10:45:10.858Z,101059.34
2019-01-12T10:46:18.273Z,101057.64
2019-01-12T10:47:24.971Z,101067.81
2019-01-12T10:48:31.652Z,101061.05
2019-01-12T10:49:38.974Z,101059.78
2019-01-12T10:50:45.682Z,101061.05
2019-01-12T10:51:53.556Z,101065.71
2019-01-12T10:53:00.339Z,101059.75
2019-01-12T10:54:07.590Z,101051.28
2019-01-12T10:55:14.387Z,101046.20
2019-01-12T10:56:21.392Z,101041.55
2019-01-12T10:57:28.474Z,101042.81
2019-01-12T10:58:35.184Z,101036.42
2019-01-12T10:59:41.876Z,101041.95
2019-01-12T11:00:48.675Z,101038.97
2019-01-12T11:01:56.122Z,101033.48
2019-01-12T11:03:03.093Z,101033.88
2019-01-12T11:04:09.820Z,101034.72
2019-01-12T11:05:17.015Z,101027.09
2019-01-12T11:06:24.041Z,101024.55
2019-01-12T11:07:31.103Z,101025.38
2019-01-12T11:08:38.509Z,101024.55
2019-01-12T11:09:45.264Z,101019.02
2019-01-12T11:10:52.034Z,101011.39
2019-01-12T11:11:59.566Z,101010.12
2019-01-12T11:13:06.976Z,101008.41
2019-01-12T11:14:13.630Z,101004.59
2019-01-12T11:15:21.795Z,101006.27
2019-01-12T11:16:28.490Z,101009.68
2019-01-12T11:17:35.506Z,100996.95
2019-01-12T11:18:42.162Z,100998.23
2019-01-12T11:19:48.825Z,100998.63
2019-01-12T11:20:55.568Z,100990.16
2019-01-12T11:22:02.635Z,100986.78
2019-01-12T11:23:10.004Z,100980.81
2019-01-12T11:24:16.955Z,100982.52
2019-01-12T11:25:23.943Z,100977.83
2019-01-12T11:26:31.048Z,100975.29
2019-01-12T11:27:38.092Z,100971.91
2019-01-12T11:28:45.171Z,100981.69
2019-01-12T11:29:51.855Z,100972.34
2019-01-12T11:30:58.864Z,100964.27
2019-01-12T11:32:05.591Z,100972.75
2019-01-12T11:33:12.664Z,100970.63
2019-01-12T11:34:19.377Z,100967.65
2019-01-12T11:35:26.714Z,100973.61
2019-01-12T11:36:33.647Z,100967.22
2019-01-12T11:37:40.903Z,100967.64
2019-01-12T11:38:47.589Z,100961.29
2019-01-12T11:39:54.890Z,100954.09
2019-01-12T11:41:01.927Z,100954.92
2019-01-12T11:42:08.950Z,100956.19
2019-01-12T11:43:15.696Z,100952.37
2019-01-12T11:44:22.728Z,100952.37
2019-01-12T11:45:29.390Z,100942.16
2019-01-12T11:46:36.369Z,100934.52
2019-01-12T11:47:43.191Z,100929.85
2019-01-12T11:48:50.085Z,100939.16
2019-01-12T11:49:57.061Z,100929.42
2019-01-12T11:51:15.006Z,100927.71
2019-01-12T11:52:22.086Z,100929.41
2019-01-12T11:53:28.821Z,100918.36
2019-01-12T11:54:35.814Z,100921.33
2019-01-12T11:55:42.501Z,100916.24
2019-01-12T11:56:49.269Z,100917.52
2019-01-12T11:57:56.000Z,100911.98
2019-01-12T11:59:02.674Z,100906.90
2019-01-12T12:00:30.738Z,100912.82
2019-01-12T12:01:37.453Z,100911.11
2019-01-12T12:02:44.570Z,100900.08
2019-01-12T12:03:51.263Z,100906.84
2019-01-12T12:04:58.311Z,100903.02
2019-01-12T12:06:05.516Z,100904.73
2019-01-12T12:07:12.516Z,100901.30
2019-01-12T12:08:19.549Z,100907.67
2019-01-12T12:09:26.222Z,100897.91
2019-01-12T12:10:32.930Z,100909.37
2019-01-12T12:11:40.073Z,100909.37
2019-01-12T12:12:47.016Z,100904.67
2019-01-12T12:13:54.036Z,100902.95
2019-01-12T12:15:01.089Z,100902.95
2019-01-12T12:16:26.973Z,100899.12
2019-01-12T12:17:33.629Z,100902.09
2019-01-12T12:18:41.047Z,100902.49
2019-01-12T12:19:47.730Z,100896.50
2019-01-12T12:20:54.909Z,100896.06
2019-01-12T12:22:01.599Z,100892.68
2019-01-12T12:23:11.297Z,100889.68
2019-01-12T12:24:18.397Z,100893.45
2019-01-12T12:25:25.503Z,100888.76
2019-01-12T12:26:32.637Z,100890.42
2019-01-12T12:27:39.304Z,100888.69
2019-01-12T12:28:45.964Z,100882.77
2019-01-12T12:29:52.606Z,100882.31
2019-01-12T12:30:59.769Z,100884.80
2019-01-12T12:32:06.547Z,100880.97
2019-01-12T12:33:13.269Z,100872.44
2019-01-12T12:34:19.924Z,100871.67
2019-01-12T12:35:26.999Z,100872.48
2019-01-12T12:36:33.891Z,100868.66
2019-01-12T12:37:40.967Z,100866.50
2019-01-12T12:38:48.386Z,100867.30
2019-01-12T12:39:55.441Z,100861.68
2019-01-12T12:41:02.501Z,100859.14
2019-01-12T12:42:09.597Z,100862.11
2019-01-12T12:43:16.457Z,100860.36
2019-01-12T12:44:23.475Z,100862.95
2019-01-12T12:45:36.016Z,100860.77
2019-01-12T12:46:42.738Z,100851.91